Terminal Aerodrome Forecast
Issued by NWS Albuquerque, NM

Home | Current Version | Previous Version | Text Only | Print | Product List | Glossary On
Versions: 1 2 3 4 5 6 7 8 9 10 11 12 13 14 15 16
000
FTUS45 KABQ 302326
TAFABQ
TAF
KABQ 302326Z 3100/3124 32007KT P6SM SCT080 SCT250
     FM310200 12011KT P6SM SCT100
     FM311000 VRB06KT P6SM FEW150 SCT250
     FM311800 24007KT P6SM SCT090 SCT250=

USA.gov is the U.S. government's official web portal to all federal, state and local government web resources and services.